Aeroporto :
LOGIN :

Iscrizione | Disclaimer

   EN    FR    IT 

 










Sommario :    VFR   VFR Marginale   IFR   IFR Intensivo   IFR Molto Intensivo
Visibilità : 
Base nubi : 
>= 8 km
>= 3000ft
5 / 8 km
1000 / 3000 ft
1500m / 5 km
500 / 1000 ft
800 / 1500m
200 / 500 ft
< 800m
< 200 ft
Simboli :   Temporali  Nebbia  Neve Forte  Precipitazioni Forti  Vento > 20 kt
SIGMETs :   Varie  Temporali  Ghiacco  Turbolenza  Onda orograficha  Ceneri Vulcaniche






- Altitudine del aeroporto : 1830 ft


EBLB - Butgenbach Elsenborn

ULTIMO METAR :
  • 200525Z AUTO 22009KT 9999 OVC003/// 04/04 Q1017 YLO

METARs OBSOLETI :
  • 200455Z AUTO 23010KT 5000 -DZ OVC003/// 04/04 Q1017 YLO
  • 200425Z AUTO 23008KT 3600 -DZ OVC002/// 04/04 Q1017 AMB
  • 200355Z AUTO 23009KT 3400 -DZ OVC002/// 04/04 Q1017 AMB
  • 200325Z AUTO 22007KT 3400 -DZ OVC002/// 04/03 Q1018 AMB
  • 200255Z AUTO 22007KT 2300 BR OVC002/// 03/03 Q1018 AMB
  • 200233Z AUTO 22008KT 3100 BR OVC002/// 03/03 Q1018 AMB

Previsioni scadute.



MetMap, La meteo Aeronautica in un colpo d'occhio ! - Copyright ORBIFLY Dicembre 2007 - Disclaimer

ORBIFLY MET'MAP TEAM :

Programmazione e sviluppo : Alexandra Zaïnal
Concezione : Baudouin d'Aumeries
Aiuto per la programmazione : Marc-Olivier Méhu
Supporto tecnico e logistico : Manuel Goepfert
Aiuto per la traduzione : Arnaldo La Scala

Contatto : metmap@orbifly.com




FONTI E CREDITI :

   NOAA